sensor_id;sensor_type;location;lat;lon;timestamp;P1;durP1;ratioP1;P2;durP2;ratioP2
37873;SDS011;23709;48.078;11.684;2023-06-26T00:01:09;16.77;;;11.90;;
37873;SDS011;23709;48.078;11.684;2023-06-26T00:03:41;14.93;;;11.43;;
37873;SDS011;23709;48.078;11.684;2023-06-26T00:06:14;14.77;;;10.82;;
37873;SDS011;23709;48.078;11.684;2023-06-26T00:08:46;16.63;;;11.43;;
37873;SDS011;23709;48.078;11.684;2023-06-26T00:11:19;17.10;;;10.73;;
37873;SDS011;23709;48.078;11.684;2023-06-26T00:13:51;15.95;;;10.63;;
37873;SDS011;23709;48.078;11.684;2023-06-26T00:16:23;16.67;;;10.77;;
37873;SDS011;23709;48.078;11.684;2023-06-26T00:18:55;14.80;;;10.80;;
37873;SDS011;23709;48.078;11.684;2023-06-26T00:21:28;16.92;;;11.02;;
37873;SDS011;23709;48.078;11.684;2023-06-26T00:24:00;17.30;;;12.30;;
37873;SDS011;23709;48.078;11.684;2023-06-26T00:26:32;16.50;;;11.30;;
37873;SDS011;23709;48.078;11.684;2023-06-26T00:29:04;15.80;;;10.57;;
37873;SDS011;23709;48.078;11.684;2023-06-26T00:31:37;19.92;;;11.18;;
37873;SDS011;23709;48.078;11.684;2023-06-26T00:34:11;17.65;;;11.65;;
37873;SDS011;23709;48.078;11.684;2023-06-26T00:36:44;15.77;;;11.20;;
37873;SDS011;23709;48.078;11.684;2023-06-26T00:39:16;15.13;;;11.38;;
37873;SDS011;23709;48.078;11.684;2023-06-26T00:41:48;14.07;;;10.93;;
37873;SDS011;23709;48.078;11.684;2023-06-26T00:44:22;18.27;;;11.18;;
37873;SDS011;23709;48.078;11.684;2023-06-26T00:46:55;25.05;;;11.68;;
37873;SDS011;23709;48.078;11.684;2023-06-26T00:49:28;14.80;;;10.65;;
37873;SDS011;23709;48.078;11.684;2023-06-26T00:52:00;14.25;;;10.73;;
37873;SDS011;23709;48.078;11.684;2023-06-26T00:54:35;15.35;;;10.68;;
37873;SDS011;23709;48.078;11.684;2023-06-26T00:57:11;15.48;;;10.95;;
37873;SDS011;23709;48.078;11.684;2023-06-26T00:59:44;15.35;;;10.90;;
37873;SDS011;23709;48.078;11.684;2023-06-26T01:02:16;15.45;;;10.90;;
37873;SDS011;23709;48.078;11.684;2023-06-26T01:04:54;18.13;;;11.05;;
37873;SDS011;23709;48.078;11.684;2023-06-26T01:07:27;14.93;;;11.17;;
37873;SDS011;23709;48.078;11.684;2023-06-26T01:09:59;13.15;;;10.45;;
37873;SDS011;23709;48.078;11.684;2023-06-26T01:12:32;15.20;;;10.65;;
37873;SDS011;23709;48.078;11.684;2023-06-26T01:15:05;16.90;;;10.95;;
37873;SDS011;23709;48.078;11.684;2023-06-26T01:17:38;15.68;;;11.20;;
37873;SDS011;23709;48.078;11.684;2023-06-26T01:20:15;14.95;;;10.40;;
37873;SDS011;23709;48.078;11.684;2023-06-26T01:23:05;13.60;;;10.07;;
37873;SDS011;23709;48.078;11.684;2023-06-26T01:25:59;14.00;;;10.20;;
37873;SDS011;23709;48.078;11.684;2023-06-26T01:28:51;14.10;;;10.68;;
37873;SDS011;23709;48.078;11.684;2023-06-26T01:31:26;15.20;;;11.07;;
37873;SDS011;23709;48.078;11.684;2023-06-26T01:33:59;16.83;;;10.45;;
37873;SDS011;23709;48.078;11.684;2023-06-26T01:36:32;18.08;;;10.50;;
37873;SDS011;23709;48.078;11.684;2023-06-26T01:39:05;18.25;;;11.73;;
37873;SDS011;23709;48.078;11.684;2023-06-26T01:41:37;14.32;;;10.70;;
37873;SDS011;23709;48.078;11.684;2023-06-26T01:49:38;16.38;;;10.68;;
37873;SDS011;23709;48.078;11.684;2023-06-26T01:55:21;17.67;;;10.80;;
37873;SDS011;23709;48.078;11.684;2023-06-26T01:58:09;14.65;;;10.40;;
37873;SDS011;23709;48.078;11.684;2023-06-26T02:00:42;16.40;;;10.93;;
37873;SDS011;23709;48.078;11.684;2023-06-26T02:03:15;15.50;;;10.80;;
37873;SDS011;23709;48.078;11.684;2023-06-26T02:05:48;15.05;;;10.65;;
37873;SDS011;23709;48.078;11.684;2023-06-26T02:08:23;16.02;;;10.50;;
37873;SDS011;23709;48.078;11.684;2023-06-26T02:11:01;15.65;;;10.70;;
37873;SDS011;23709;48.078;11.684;2023-06-26T02:13:33;13.82;;;10.43;;
37873;SDS011;23709;48.078;11.684;2023-06-26T02:16:05;16.10;;;11.07;;
37873;SDS011;23709;48.078;11.684;2023-06-26T02:18:38;17.00;;;10.10;;
37873;SDS011;23709;48.078;11.684;2023-06-26T02:21:10;13.23;;;9.98;;
37873;SDS011;23709;48.078;11.684;2023-06-26T02:23:43;16.05;;;10.63;;
37873;SDS011;23709;48.078;11.684;2023-06-26T02:26:16;15.60;;;10.67;;
37873;SDS011;23709;48.078;11.684;2023-06-26T02:28:48;13.27;;;10.35;;
37873;SDS011;23709;48.078;11.684;2023-06-26T02:31:21;14.50;;;10.20;;
37873;SDS011;23709;48.078;11.684;2023-06-26T02:33:53;20.88;;;11.32;;
37873;SDS011;23709;48.078;11.684;2023-06-26T02:36:26;17.47;;;10.27;;
37873;SDS011;23709;48.078;11.684;2023-06-26T02:38:59;14.40;;;10.73;;
37873;SDS011;23709;48.078;11.684;2023-06-26T02:41:32;15.55;;;10.85;;
37873;SDS011;23709;48.078;11.684;2023-06-26T02:44:05;16.67;;;10.88;;
37873;SDS011;23709;48.078;11.684;2023-06-26T02:46:38;16.17;;;10.93;;
37873;SDS011;23709;48.078;11.684;2023-06-26T02:49:10;16.90;;;11.00;;
37873;SDS011;23709;48.078;11.684;2023-06-26T02:51:43;16.88;;;11.63;;
37873;SDS011;23709;48.078;11.684;2023-06-26T02:54:25;15.57;;;10.68;;
37873;SDS011;23709;48.078;11.684;2023-06-26T02:57:02;18.08;;;10.48;;
37873;SDS011;23709;48.078;11.684;2023-06-26T02:59:36;15.48;;;10.48;;
37873;SDS011;23709;48.078;11.684;2023-06-26T03:02:08;15.90;;;11.10;;
37873;SDS011;23709;48.078;11.684;2023-06-26T03:04:45;15.57;;;10.70;;
37873;SDS011;23709;48.078;11.684;2023-06-26T03:07:21;15.10;;;11.13;;
37873;SDS011;23709;48.078;11.684;2023-06-26T03:09:53;16.95;;;10.30;;
37873;SDS011;23709;48.078;11.684;2023-06-26T03:12:26;14.82;;;10.35;;
37873;SDS011;23709;48.078;11.684;2023-06-26T03:14:58;16.98;;;10.95;;
37873;SDS011;23709;48.078;11.684;2023-06-26T03:17:31;14.37;;;10.97;;
37873;SDS011;23709;48.078;11.684;2023-06-26T03:20:08;16.95;;;10.90;;
37873;SDS011;23709;48.078;11.684;2023-06-26T03:22:52;15.00;;;10.93;;
37873;SDS011;23709;48.078;11.684;2023-06-26T03:28:24;15.38;;;10.63;;
37873;SDS011;23709;48.078;11.684;2023-06-26T03:30:57;17.25;;;11.38;;
37873;SDS011;23709;48.078;11.684;2023-06-26T03:33:30;14.35;;;10.73;;
37873;SDS011;23709;48.078;11.684;2023-06-26T03:36:03;15.52;;;11.25;;
37873;SDS011;23709;48.078;11.684;2023-06-26T03:38:35;16.17;;;10.93;;
37873;SDS011;23709;48.078;11.684;2023-06-26T03:41:08;16.75;;;11.38;;
37873;SDS011;23709;48.078;11.684;2023-06-26T03:43:43;15.77;;;10.60;;
37873;SDS011;23709;48.078;11.684;2023-06-26T03:46:23;16.10;;;10.60;;
37873;SDS011;23709;48.078;11.684;2023-06-26T03:48:55;17.88;;;11.25;;
37873;SDS011;23709;48.078;11.684;2023-06-26T03:51:28;16.88;;;11.65;;
37873;SDS011;23709;48.078;11.684;2023-06-26T03:54:03;15.75;;;10.25;;
37873;SDS011;23709;48.078;11.684;2023-06-26T03:56:35;17.63;;;10.75;;
37873;SDS011;23709;48.078;11.684;2023-06-26T03:59:10;16.70;;;11.63;;
37873;SDS011;23709;48.078;11.684;2023-06-26T04:01:42;18.88;;;11.48;;
37873;SDS011;23709;48.078;11.684;2023-06-26T04:04:15;17.53;;;10.77;;
37873;SDS011;23709;48.078;11.684;2023-06-26T04:06:48;17.20;;;11.73;;
37873;SDS011;23709;48.078;11.684;2023-06-26T04:09:21;19.45;;;11.45;;
37873;SDS011;23709;48.078;11.684;2023-06-26T04:11:54;18.20;;;10.50;;
37873;SDS011;23709;48.078;11.684;2023-06-26T04:14:32;15.57;;;10.85;;
37873;SDS011;23709;48.078;11.684;2023-06-26T04:17:05;15.73;;;9.90;;
37873;SDS011;23709;48.078;11.684;2023-06-26T04:22:11;16.20;;;10.40;;
37873;SDS011;23709;48.078;11.684;2023-06-26T04:24:44;16.52;;;10.80;;
37873;SDS011;23709;48.078;11.684;2023-06-26T04:27:17;16.70;;;10.68;;
37873;SDS011;23709;48.078;11.684;2023-06-26T04:29:50;16.10;;;10.93;;
37873;SDS011;23709;48.078;11.684;2023-06-26T04:32:23;23.15;;;10.63;;
37873;SDS011;23709;48.078;11.684;2023-06-26T04:34:55;14.98;;;10.20;;
37873;SDS011;23709;48.078;11.684;2023-06-26T04:37:28;18.93;;;10.63;;
37873;SDS011;23709;48.078;11.684;2023-06-26T04:40:01;16.10;;;10.20;;
37873;SDS011;23709;48.078;11.684;2023-06-26T04:42:36;16.10;;;10.30;;
37873;SDS011;23709;48.078;11.684;2023-06-26T04:45:08;26.20;;;12.02;;
37873;SDS011;23709;48.078;11.684;2023-06-26T04:47:41;15.38;;;10.50;;
37873;SDS011;23709;48.078;11.684;2023-06-26T04:50:14;16.42;;;10.73;;
37873;SDS011;23709;48.078;11.684;2023-06-26T04:52:47;16.48;;;10.98;;
37873;SDS011;23709;48.078;11.684;2023-06-26T04:55:20;24.13;;;11.13;;
37873;SDS011;23709;48.078;11.684;2023-06-26T04:57:56;15.55;;;10.02;;
37873;SDS011;23709;48.078;11.684;2023-06-26T05:00:29;15.90;;;10.63;;
37873;SDS011;23709;48.078;11.684;2023-06-26T05:03:03;14.25;;;9.40;;
37873;SDS011;23709;48.078;11.684;2023-06-26T05:05:36;17.63;;;10.98;;
37873;SDS011;23709;48.078;11.684;2023-06-26T05:08:21;20.42;;;10.88;;
37873;SDS011;23709;48.078;11.684;2023-06-26T05:10:54;21.45;;;11.32;;
37873;SDS011;23709;48.078;11.684;2023-06-26T05:13:29;13.52;;;9.60;;
37873;SDS011;23709;48.078;11.684;2023-06-26T05:16:02;16.40;;;11.30;;
37873;SDS011;23709;48.078;11.684;2023-06-26T05:18:35;16.83;;;9.93;;
37873;SDS011;23709;48.078;11.684;2023-06-26T05:21:08;17.63;;;10.60;;
37873;SDS011;23709;48.078;11.684;2023-06-26T05:23:41;15.63;;;10.40;;
37873;SDS011;23709;48.078;11.684;2023-06-26T05:26:16;14.77;;;9.70;;
37873;SDS011;23709;48.078;11.684;2023-06-26T05:28:49;15.50;;;10.30;;
37873;SDS011;23709;48.078;11.684;2023-06-26T05:31:22;17.35;;;10.98;;
37873;SDS011;23709;48.078;11.684;2023-06-26T05:33:55;17.33;;;11.02;;
37873;SDS011;23709;48.078;11.684;2023-06-26T05:36:28;18.63;;;10.90;;
37873;SDS011;23709;48.078;11.684;2023-06-26T05:39:02;17.48;;;9.93;;
37873;SDS011;23709;48.078;11.684;2023-06-26T05:41:35;18.25;;;10.32;;
37873;SDS011;23709;48.078;11.684;2023-06-26T05:44:07;16.17;;;10.30;;
37873;SDS011;23709;48.078;11.684;2023-06-26T05:46:40;16.77;;;10.20;;
37873;SDS011;23709;48.078;11.684;2023-06-26T05:49:12;15.02;;;11.15;;
37873;SDS011;23709;48.078;11.684;2023-06-26T05:51:46;17.00;;;10.18;;
37873;SDS011;23709;48.078;11.684;2023-06-26T05:54:18;16.98;;;10.82;;
37873;SDS011;23709;48.078;11.684;2023-06-26T05:56:56;21.33;;;10.07;;
37873;SDS011;23709;48.078;11.684;2023-06-26T05:59:33;15.48;;;10.27;;
37873;SDS011;23709;48.078;11.684;2023-06-26T06:02:11;15.73;;;10.57;;
37873;SDS011;23709;48.078;11.684;2023-06-26T06:04:44;24.23;;;10.27;;
37873;SDS011;23709;48.078;11.684;2023-06-26T06:07:17;15.48;;;10.93;;
37873;SDS011;23709;48.078;11.684;2023-06-26T06:09:50;18.85;;;11.35;;
37873;SDS011;23709;48.078;11.684;2023-06-26T06:12:22;13.40;;;9.93;;
37873;SDS011;23709;48.078;11.684;2023-06-26T06:14:56;13.27;;;9.80;;
37873;SDS011;23709;48.078;11.684;2023-06-26T06:17:28;15.67;;;10.80;;
37873;SDS011;23709;48.078;11.684;2023-06-26T06:20:02;14.60;;;9.98;;
37873;SDS011;23709;48.078;11.684;2023-06-26T06:22:35;17.23;;;10.63;;
37873;SDS011;23709;48.078;11.684;2023-06-26T06:25:08;16.45;;;10.98;;
37873;SDS011;23709;48.078;11.684;2023-06-26T06:27:40;15.80;;;10.33;;
37873;SDS011;23709;48.078;11.684;2023-06-26T06:30:14;16.35;;;10.68;;
37873;SDS011;23709;48.078;11.684;2023-06-26T06:32:47;14.93;;;9.52;;
37873;SDS011;23709;48.078;11.684;2023-06-26T06:35:22;16.67;;;10.80;;
37873;SDS011;23709;48.078;11.684;2023-06-26T06:38:00;14.23;;;9.98;;
37873;SDS011;23709;48.078;11.684;2023-06-26T06:40:32;16.45;;;10.18;;
37873;SDS011;23709;48.078;11.684;2023-06-26T06:43:05;13.83;;;10.33;;
37873;SDS011;23709;48.078;11.684;2023-06-26T06:45:37;16.23;;;10.07;;
37873;SDS011;23709;48.078;11.684;2023-06-26T06:48:10;13.13;;;9.18;;
37873;SDS011;23709;48.078;11.684;2023-06-26T06:50:43;15.88;;;9.68;;
37873;SDS011;23709;48.078;11.684;2023-06-26T06:53:15;12.23;;;9.23;;
37873;SDS011;23709;48.078;11.684;2023-06-26T06:55:49;13.13;;;9.05;;
37873;SDS011;23709;48.078;11.684;2023-06-26T06:58:21;13.88;;;8.75;;
37873;SDS011;23709;48.078;11.684;2023-06-26T07:00:54;14.60;;;8.93;;
37873;SDS011;23709;48.078;11.684;2023-06-26T07:03:27;13.75;;;10.00;;
37873;SDS011;23709;48.078;11.684;2023-06-26T07:06:00;14.00;;;9.10;;
37873;SDS011;23709;48.078;11.684;2023-06-26T07:08:33;12.90;;;8.43;;
37873;SDS011;23709;48.078;11.684;2023-06-26T07:11:07;12.40;;;8.40;;
37873;SDS011;23709;48.078;11.684;2023-06-26T07:13:40;10.70;;;8.40;;
37873;SDS011;23709;48.078;11.684;2023-06-26T07:16:12;8.68;;;7.60;;
37873;SDS011;23709;48.078;11.684;2023-06-26T07:18:47;11.07;;;8.30;;
37873;SDS011;23709;48.078;11.684;2023-06-26T07:21:20;9.95;;;7.65;;
37873;SDS011;23709;48.078;11.684;2023-06-26T07:23:56;9.20;;;7.75;;
37873;SDS011;23709;48.078;11.684;2023-06-26T07:26:30;11.32;;;8.73;;
37873;SDS011;23709;48.078;11.684;2023-06-26T07:29:15;11.82;;;8.75;;
37873;SDS011;23709;48.078;11.684;2023-06-26T07:31:48;18.43;;;9.63;;
37873;SDS011;23709;48.078;11.684;2023-06-26T07:34:21;11.63;;;8.73;;
37873;SDS011;23709;48.078;11.684;2023-06-26T07:36:54;11.95;;;8.35;;
37873;SDS011;23709;48.078;11.684;2023-06-26T07:39:26;11.00;;;8.60;;
37873;SDS011;23709;48.078;11.684;2023-06-26T07:41:59;12.50;;;8.33;;
37873;SDS011;23709;48.078;11.684;2023-06-26T07:44:32;12.13;;;8.02;;
37873;SDS011;23709;48.078;11.684;2023-06-26T07:47:04;11.67;;;8.23;;
37873;SDS011;23709;48.078;11.684;2023-06-26T07:49:38;11.63;;;8.60;;
37873;SDS011;23709;48.078;11.684;2023-06-26T07:52:22;12.52;;;8.19;;
37873;SDS011;23709;48.078;11.684;2023-06-26T07:54:54;9.93;;;7.53;;
37873;SDS011;23709;48.078;11.684;2023-06-26T07:57:27;12.97;;;8.20;;
37873;SDS011;23709;48.078;11.684;2023-06-26T08:00:00;10.05;;;7.75;;
37873;SDS011;23709;48.078;11.684;2023-06-26T08:02:33;10.60;;;8.25;;
37873;SDS011;23709;48.078;11.684;2023-06-26T08:05:05;9.83;;;8.20;;
37873;SDS011;23709;48.078;11.684;2023-06-26T08:07:39;9.75;;;7.57;;
37873;SDS011;23709;48.078;11.684;2023-06-26T08:10:11;9.45;;;7.97;;
37873;SDS011;23709;48.078;11.684;2023-06-26T08:12:44;15.82;;;8.18;;
37873;SDS011;23709;48.078;11.684;2023-06-26T08:15:18;10.35;;;8.40;;
37873;SDS011;23709;48.078;11.684;2023-06-26T08:17:50;10.63;;;7.90;;
37873;SDS011;23709;48.078;11.684;2023-06-26T08:20:23;11.60;;;8.35;;
37873;SDS011;23709;48.078;11.684;2023-06-26T08:22:55;9.38;;;7.68;;
37873;SDS011;23709;48.078;11.684;2023-06-26T08:25:27;10.48;;;8.23;;
37873;SDS011;23709;48.078;11.684;2023-06-26T08:27:59;12.27;;;8.00;;
37873;SDS011;23709;48.078;11.684;2023-06-26T08:30:32;9.90;;;8.45;;
37873;SDS011;23709;48.078;11.684;2023-06-26T08:33:04;12.98;;;8.10;;
37873;SDS011;23709;48.078;11.684;2023-06-26T08:35:37;16.02;;;8.27;;
37873;SDS011;23709;48.078;11.684;2023-06-26T08:38:10;14.07;;;8.35;;
37873;SDS011;23709;48.078;11.684;2023-06-26T08:40:43;12.93;;;7.85;;
37873;SDS011;23709;48.078;11.684;2023-06-26T08:43:16;10.30;;;7.82;;
37873;SDS011;23709;48.078;11.684;2023-06-26T08:45:49;11.15;;;8.20;;
37873;SDS011;23709;48.078;11.684;2023-06-26T08:48:24;12.68;;;8.30;;
37873;SDS011;23709;48.078;11.684;2023-06-26T08:50:57;12.07;;;7.88;;
37873;SDS011;23709;48.078;11.684;2023-06-26T08:53:33;8.32;;;7.53;;
37873;SDS011;23709;48.078;11.684;2023-06-26T08:56:07;14.40;;;8.27;;
37873;SDS011;23709;48.078;11.684;2023-06-26T08:58:40;10.10;;;7.97;;
37873;SDS011;23709;48.078;11.684;2023-06-26T09:01:14;11.20;;;7.88;;
37873;SDS011;23709;48.078;11.684;2023-06-26T09:03:47;11.55;;;8.25;;
37873;SDS011;23709;48.078;11.684;2023-06-26T09:06:20;14.82;;;7.53;;
37873;SDS011;23709;48.078;11.684;2023-06-26T09:08:52;8.63;;;7.32;;
37873;SDS011;23709;48.078;11.684;2023-06-26T09:11:25;8.88;;;7.38;;
37873;SDS011;23709;48.078;11.684;2023-06-26T09:13:58;11.00;;;8.27;;
37873;SDS011;23709;48.078;11.684;2023-06-26T09:16:32;10.60;;;7.88;;
37873;SDS011;23709;48.078;11.684;2023-06-26T09:19:07;10.77;;;7.18;;
37873;SDS011;23709;48.078;11.684;2023-06-26T09:21:41;8.85;;;7.20;;
37873;SDS011;23709;48.078;11.684;2023-06-26T09:24:13;9.63;;;7.63;;
